Terminal Aerodrome Forecast
Issued by NWS Brownsville, TX

Home | Current Version | Previous Version | Text Only | Print | Product List | Glossary On
Versions: 1 2 3 4 5 6 7 8 9 10 11 12 13 14 15 16 17
376
FTUS44 KBRO 010537
TAFBRO
TAF
KBRO 010537Z 0106/0206 32003KT P6SM SCT110
     FM011600 35008KT P6SM FEW040 SCT100
     FM012000 06010G17KT P6SM FEW040 FEW100
     FM020200 02004KT P6SM SKC=

USA.gov is the U.S. government's official web portal to all federal, state and local government web resources and services.